BTY002 LGSK-LIML
Flight info
| Callsign | BTY002 |
|---|---|
| Flight time | 2h 0m |
| Altitude | 36000 |
| Route | EVIKO DCT AGH UV651 YNN UL613 VJOSA DCT CRAYE DCT KATTI DCT ANC DCT OSBUL |
| Aircraft | A320/M-SDE3FGHIRWY/LB1 |
Departure
| Time | 2026-04-14 06:17 |
|---|---|
| Airport | Skiathos Island National Airport (LGSK) |
Arrival
| Time | 2026-04-14 08:17 |
|---|---|
| Airport | Milano Linate Airport (LIML) |
| Time | Latitude | Longitude | Altitude | Speed | Heading |
|---|---|---|---|---|---|
| 2026-04-14 06:10 | 39.17915 | 23.50230 | 53 ft | 0 kts | 283° |
| 2026-04-14 06:10 | 39.17912 | 23.50248 | 50 ft | 4 kts | 282° |
| 2026-04-14 06:10 | 39.17907 | 23.50283 | 47 ft | 4 kts | 272° |
| 2026-04-14 06:11 | 39.17910 | 23.50315 | 44 ft | 4 kts | 239° |
| 2026-04-14 06:11 | 39.17921 | 23.50330 | 44 ft | 1 kts | 199° |
| 2026-04-14 06:11 | 39.17924 | 23.50331 | 39 ft | 1 kts | 199° |
| 2026-04-14 06:13 | 39.17824 | 23.50287 | 40 ft | 20 kts | 197° |
| 2026-04-14 06:14 | 39.17730 | 23.50270 | 40 ft | 20 kts | 163° |
| 2026-04-14 06:14 | 39.17602 | 23.50309 | 38 ft | 21 kts | 197° |
| 2026-04-14 06:14 | 39.17447 | 23.50239 | 33 ft | 25 kts | 200° |
| 2026-04-14 06:14 | 39.17266 | 23.50158 | 23 ft | 30 kts | 198° |
| 2026-04-14 06:15 | 39.17102 | 23.50085 | 20 ft | 19 kts | 195° |
| 2026-04-14 06:15 | 39.17027 | 23.50084 | 17 ft | 10 kts | 206° |
| 2026-04-14 06:15 | 39.17030 | 23.50037 | 16 ft | 4 kts | 8° |
| 2026-04-14 06:15 | 39.17039 | 23.50047 | 17 ft | 0 kts | 44° |
| 2026-04-14 06:16 | 39.17042 | 23.50051 | 17 ft | 3 kts | 44° |
| 2026-04-14 06:16 | 39.17049 | 23.50057 | 18 ft | 0 kts | 30° |
| 2026-04-14 06:16 | 39.17128 | 23.50096 | 20 ft | 47 kts | 20° |
| 2026-04-14 06:16 | 39.17710 | 23.50357 | 42 ft | 126 kts | 19° |
| 2026-04-14 06:17 | 39.18658 | 23.50782 | 403 ft | 158 kts | 20° |
| 2026-04-14 06:17 | 39.19756 | 23.51287 | 1089 ft | 169 kts | 21° |
| 2026-04-14 06:17 | 39.20863 | 23.51771 | 2056 ft | 170 kts | 24° |
| 2026-04-14 06:17 | 39.21830 | 23.52679 | 2490 ft | 180 kts | 60° |
| 2026-04-14 06:18 | 39.22148 | 23.54254 | 2738 ft | 195 kts | 98° |
| 2026-04-14 06:18 | 39.21565 | 23.55887 | 3118 ft | 209 kts | 129° |
| 2026-04-14 06:18 | 39.20654 | 23.57363 | 3876 ft | 211 kts | 130° |
| 2026-04-14 06:18 | 39.19733 | 23.58865 | 4632 ft | 215 kts | 131° |
| 2026-04-14 06:19 | 39.18807 | 23.60380 | 5406 ft | 219 kts | 131° |
| 2026-04-14 06:19 | 39.17848 | 23.61931 | 6144 ft | 223 kts | 136° |
| 2026-04-14 06:19 | 39.16590 | 23.63230 | 6529 ft | 242 kts | 156° |
| 2026-04-14 06:19 | 39.14932 | 23.63886 | 6927 ft | 257 kts | 178° |
| 2026-04-14 06:20 | 39.13167 | 23.63699 | 7647 ft | 260 kts | 198° |
| 2026-04-14 06:20 | 39.11537 | 23.62680 | 8453 ft | 262 kts | 218° |
| 2026-04-14 06:20 | 39.10315 | 23.60929 | 9306 ft | 265 kts | 239° |
| 2026-04-14 06:20 | 39.09705 | 23.58680 | 10159 ft | 269 kts | 261° |
| 2026-04-14 06:21 | 39.09825 | 23.56277 | 10895 ft | 279 kts | 282° |
| 2026-04-14 06:21 | 39.10732 | 23.54023 | 11637 ft | 292 kts | 306° |
| 2026-04-14 06:21 | 39.12242 | 23.52138 | 12024 ft | 314 kts | 313° |
| 2026-04-14 06:21 | 39.13935 | 23.50188 | 12208 ft | 338 kts | 314° |
| 2026-04-14 06:22 | 39.15726 | 23.48159 | 12568 ft | 352 kts | 314° |
| 2026-04-14 06:22 | 39.17486 | 23.45937 | 13172 ft | 352 kts | 303° |
| 2026-04-14 06:22 | 39.18633 | 23.43185 | 13881 ft | 348 kts | 284° |
| 2026-04-14 06:22 | 39.19124 | 23.40139 | 14550 ft | 344 kts | 271° |
| 2026-04-14 06:23 | 39.19206 | 23.37090 | 15187 ft | 345 kts | 268° |
| 2026-04-14 06:23 | 39.19303 | 23.33974 | 15824 ft | 348 kts | 269° |
| 2026-04-14 06:23 | 39.19432 | 23.30839 | 16447 ft | 351 kts | 270° |
| 2026-04-14 06:23 | 39.19582 | 23.27674 | 17069 ft | 354 kts | 270° |
| 2026-04-14 06:24 | 39.19735 | 23.24518 | 17657 ft | 357 kts | 270° |
| 2026-04-14 06:24 | 39.19887 | 23.21300 | 18277 ft | 360 kts | 270° |
| 2026-04-14 06:24 | 39.20036 | 23.18056 | 18812 ft | 363 kts | 270° |
| 2026-04-14 06:24 | 39.20182 | 23.14795 | 19336 ft | 365 kts | 270° |
| 2026-04-14 06:25 | 39.20325 | 23.11519 | 19884 ft | 366 kts | 270° |
| 2026-04-14 06:25 | 39.20463 | 23.08229 | 20436 ft | 367 kts | 270° |
| 2026-04-14 06:25 | 39.20599 | 23.04979 | 20949 ft | 369 kts | 270° |
| 2026-04-14 06:25 | 39.20740 | 23.01669 | 21470 ft | 370 kts | 270° |
| 2026-04-14 06:26 | 39.20883 | 22.98348 | 21992 ft | 371 kts | 270° |
| 2026-04-14 06:26 | 39.21026 | 22.95013 | 22505 ft | 373 kts | 270° |
| 2026-04-14 06:26 | 39.21166 | 22.91661 | 23014 ft | 374 kts | 270° |
| 2026-04-14 06:26 | 39.21299 | 22.88305 | 23512 ft | 375 kts | 270° |
| 2026-04-14 06:27 | 39.21431 | 22.84941 | 23957 ft | 377 kts | 270° |
| 2026-04-14 06:27 | 39.21570 | 22.81554 | 24361 ft | 378 kts | 271° |
| 2026-04-14 06:27 | 39.22002 | 22.78185 | 24760 ft | 385 kts | 280° |
| 2026-04-14 06:27 | 39.22808 | 22.74909 | 25140 ft | 388 kts | 283° |
| 2026-04-14 06:28 | 39.23656 | 22.71597 | 25518 ft | 389 kts | 283° |
| 2026-04-14 06:28 | 39.24506 | 22.68274 | 25886 ft | 391 kts | 283° |
| 2026-04-14 06:28 | 39.25358 | 22.64927 | 26250 ft | 392 kts | 282° |
| 2026-04-14 06:28 | 39.26208 | 22.61575 | 26618 ft | 394 kts | 282° |
| 2026-04-14 06:29 | 39.27061 | 22.58195 | 26989 ft | 395 kts | 282° |
| 2026-04-14 06:29 | 39.27903 | 22.54862 | 27344 ft | 396 kts | 282° |
| 2026-04-14 06:29 | 39.28762 | 22.51464 | 27695 ft | 398 kts | 282° |
| 2026-04-14 06:29 | 39.29623 | 22.48049 | 28044 ft | 400 kts | 282° |
| 2026-04-14 06:30 | 39.30483 | 22.44630 | 28397 ft | 401 kts | 281° |
| 2026-04-14 06:30 | 39.31347 | 22.41188 | 28718 ft | 403 kts | 281° |
| 2026-04-14 06:30 | 39.32216 | 22.37728 | 29035 ft | 404 kts | 281° |
| 2026-04-14 06:30 | 39.33084 | 22.34268 | 29336 ft | 406 kts | 281° |
| 2026-04-14 06:31 | 39.33945 | 22.30827 | 29641 ft | 407 kts | 281° |
| 2026-04-14 06:31 | 39.34817 | 22.27337 | 29945 ft | 408 kts | 281° |
| 2026-04-14 06:31 | 39.35692 | 22.23836 | 30236 ft | 410 kts | 281° |
| 2026-04-14 06:31 | 39.36568 | 22.20330 | 30568 ft | 409 kts | 281° |
| 2026-04-14 06:32 | 39.37443 | 22.16827 | 30921 ft | 408 kts | 281° |
| 2026-04-14 06:32 | 39.38303 | 22.13381 | 31252 ft | 407 kts | 281° |
| 2026-04-14 06:32 | 39.39169 | 22.09899 | 31651 ft | 405 kts | 280° |
| 2026-04-14 06:32 | 39.40032 | 22.06426 | 32011 ft | 404 kts | 280° |
| 2026-04-14 06:33 | 39.40889 | 22.02956 | 32341 ft | 403 kts | 280° |
| 2026-04-14 06:33 | 39.41730 | 21.99546 | 32665 ft | 402 kts | 280° |
| 2026-04-14 06:33 | 39.42584 | 21.96088 | 32979 ft | 402 kts | 280° |
| 2026-04-14 06:34 | 39.44283 | 21.89185 | 33614 ft | 401 kts | 280° |
| 2026-04-14 06:34 | 39.45127 | 21.85740 | 33925 ft | 401 kts | 280° |
| 2026-04-14 06:34 | 39.45957 | 21.82350 | 34247 ft | 401 kts | 281° |
| 2026-04-14 06:34 | 39.46798 | 21.78913 | 34524 ft | 401 kts | 281° |
| 2026-04-14 06:35 | 39.47639 | 21.75465 | 34766 ft | 401 kts | 281° |
| 2026-04-14 06:35 | 39.48484 | 21.71999 | 34999 ft | 401 kts | 281° |
| 2026-04-14 06:35 | 39.49314 | 21.68593 | 35208 ft | 402 kts | 282° |
| 2026-04-14 06:35 | 39.50158 | 21.65129 | 35422 ft | 403 kts | 282° |
| 2026-04-14 06:36 | 39.50983 | 21.61734 | 35621 ft | 403 kts | 282° |
| 2026-04-14 06:36 | 39.51843 | 21.58196 | 35829 ft | 404 kts | 282° |
| 2026-04-14 06:36 | 39.52689 | 21.54714 | 35984 ft | 405 kts | 282° |
| 2026-04-14 06:36 | 39.53524 | 21.51267 | 36119 ft | 405 kts | 282° |
| 2026-04-14 06:37 | 39.55216 | 21.44275 | 36161 ft | 407 kts | 282° |
| 2026-04-14 06:37 | 39.56909 | 21.37262 | 36139 ft | 407 kts | 282° |
| 2026-04-14 06:38 | 39.58587 | 21.30283 | 36137 ft | 407 kts | 282° |
| 2026-04-14 06:38 | 39.60264 | 21.23254 | 36107 ft | 407 kts | 282° |
| 2026-04-14 06:39 | 39.61928 | 21.16269 | 36096 ft | 407 kts | 282° |
| 2026-04-14 06:39 | 39.63601 | 21.09242 | 36099 ft | 407 kts | 282° |
| 2026-04-14 06:40 | 39.65268 | 21.02212 | 36082 ft | 407 kts | 282° |
| 2026-04-14 06:40 | 39.66922 | 20.95232 | 36064 ft | 406 kts | 282° |
| 2026-04-14 06:41 | 39.68580 | 20.88206 | 36065 ft | 406 kts | 282° |
| 2026-04-14 06:41 | 39.70761 | 20.81381 | 36057 ft | 416 kts | 296° |
| 2026-04-14 06:42 | 39.74398 | 20.75466 | 36069 ft | 424 kts | 304° |
| 2026-04-14 06:42 | 39.78250 | 20.69637 | 36052 ft | 424 kts | 303° |
| 2026-04-14 06:43 | 39.82102 | 20.63779 | 36044 ft | 425 kts | 303° |
| 2026-04-14 06:43 | 39.85924 | 20.57940 | 36027 ft | 425 kts | 303° |
| 2026-04-14 06:44 | 39.89760 | 20.52073 | 36030 ft | 425 kts | 303° |
| 2026-04-14 06:44 | 39.93584 | 20.46230 | 36053 ft | 426 kts | 304° |
| 2026-04-14 06:45 | 39.97419 | 20.40340 | 36020 ft | 427 kts | 304° |
| 2026-04-14 06:45 | 40.01348 | 20.34459 | 36014 ft | 430 kts | 306° |
| 2026-04-14 06:46 | 40.07433 | 20.25843 | 36004 ft | 432 kts | 306° |
| 2026-04-14 06:47 | 40.11494 | 20.20057 | 35995 ft | 432 kts | 306° |
| 2026-04-14 06:47 | 40.15528 | 20.14219 | 35996 ft | 432 kts | 306° |
| 2026-04-14 06:48 | 40.19529 | 20.08416 | 35999 ft | 433 kts | 306° |
| 2026-04-14 06:48 | 40.23573 | 20.02559 | 35989 ft | 434 kts | 306° |
| 2026-04-14 06:49 | 40.27620 | 19.96680 | 35973 ft | 435 kts | 306° |
| 2026-04-14 06:49 | 40.31652 | 19.90804 | 35967 ft | 435 kts | 306° |
| 2026-04-14 06:50 | 40.35711 | 19.84883 | 35975 ft | 436 kts | 306° |
| 2026-04-14 06:50 | 40.39758 | 19.78977 | 35986 ft | 437 kts | 306° |
| 2026-04-14 06:51 | 40.43830 | 19.73037 | 35975 ft | 437 kts | 306° |
| 2026-04-14 06:51 | 40.47894 | 19.67082 | 35976 ft | 438 kts | 306° |
| 2026-04-14 06:52 | 40.51935 | 19.61149 | 35984 ft | 438 kts | 306° |
| 2026-04-14 06:52 | 40.56005 | 19.55154 | 35976 ft | 438 kts | 306° |
| 2026-04-14 06:53 | 40.60036 | 19.49201 | 35976 ft | 438 kts | 306° |
| 2026-04-14 06:53 | 40.64092 | 19.43201 | 35992 ft | 438 kts | 307° |
| 2026-04-14 06:54 | 40.68124 | 19.37226 | 35991 ft | 438 kts | 307° |
| 2026-04-14 06:54 | 40.72180 | 19.31212 | 35989 ft | 438 kts | 307° |
| 2026-04-14 06:55 | 40.76206 | 19.25225 | 35985 ft | 438 kts | 307° |
| 2026-04-14 06:55 | 40.80255 | 19.19191 | 35990 ft | 439 kts | 307° |
| 2026-04-14 06:56 | 40.84317 | 19.13135 | 35989 ft | 439 kts | 307° |
| 2026-04-14 06:56 | 40.88343 | 19.07105 | 35997 ft | 440 kts | 307° |
| 2026-04-14 06:57 | 40.92390 | 19.01023 | 35991 ft | 440 kts | 307° |
| 2026-04-14 06:57 | 40.96454 | 18.94938 | 35995 ft | 441 kts | 307° |
| 2026-04-14 06:58 | 41.00513 | 18.88842 | 35995 ft | 441 kts | 307° |
| 2026-04-14 06:58 | 41.04543 | 18.82759 | 35996 ft | 441 kts | 307° |
| 2026-04-14 06:59 | 41.06862 | 18.79257 | 36005 ft | 441 kts | 307° |
| 2026-04-14 07:02 | 41.09429 | 18.75379 | 36008 ft | 441 kts | 307° |
| 2026-04-14 07:02 | 41.13457 | 18.69275 | 35997 ft | 442 kts | 307° |
| 2026-04-14 07:03 | 41.17504 | 18.63130 | 35995 ft | 442 kts | 307° |
| 2026-04-14 07:03 | 41.21558 | 18.56970 | 35992 ft | 442 kts | 307° |
| 2026-04-14 07:04 | 41.25612 | 18.50799 | 35990 ft | 443 kts | 307° |
| 2026-04-14 07:04 | 41.29639 | 18.44654 | 35992 ft | 443 kts | 307° |
| 2026-04-14 07:05 | 41.33695 | 18.38453 | 35996 ft | 443 kts | 307° |
| 2026-04-14 07:05 | 41.37707 | 18.32297 | 35992 ft | 443 kts | 307° |
| 2026-04-14 07:06 | 41.41744 | 18.26086 | 35994 ft | 443 kts | 307° |
| 2026-04-14 07:06 | 41.45782 | 18.19869 | 35993 ft | 443 kts | 307° |
| 2026-04-14 07:07 | 41.49805 | 18.13632 | 35983 ft | 442 kts | 305° |
| 2026-04-14 07:07 | 41.53277 | 18.06906 | 35982 ft | 439 kts | 300° |
| 2026-04-14 07:08 | 41.56639 | 18.00149 | 35978 ft | 440 kts | 300° |
| 2026-04-14 07:08 | 41.60037 | 17.93326 | 35985 ft | 440 kts | 300° |
| 2026-04-14 07:09 | 41.63421 | 17.86519 | 35974 ft | 440 kts | 300° |
| 2026-04-14 07:09 | 41.66785 | 17.79734 | 35973 ft | 440 kts | 300° |
| 2026-04-14 07:10 | 41.70161 | 17.72888 | 35976 ft | 440 kts | 300° |
| 2026-04-14 07:10 | 41.73533 | 17.66047 | 35969 ft | 440 kts | 300° |
| 2026-04-14 07:11 | 41.76886 | 17.59234 | 35958 ft | 440 kts | 300° |
| 2026-04-14 07:11 | 41.80250 | 17.52371 | 35959 ft | 440 kts | 300° |
| 2026-04-14 07:12 | 41.83592 | 17.45546 | 35950 ft | 440 kts | 300° |
| 2026-04-14 07:12 | 41.86954 | 17.38660 | 35960 ft | 440 kts | 300° |
| 2026-04-14 07:13 | 41.90309 | 17.31772 | 35947 ft | 440 kts | 300° |
| 2026-04-14 07:13 | 41.93631 | 17.24937 | 35950 ft | 440 kts | 300° |
| 2026-04-14 07:14 | 41.96975 | 17.18032 | 35939 ft | 440 kts | 300° |
| 2026-04-14 07:14 | 42.00320 | 17.11126 | 35940 ft | 440 kts | 300° |
| 2026-04-14 07:15 | 42.03641 | 17.04257 | 35932 ft | 440 kts | 300° |
| 2026-04-14 07:15 | 42.06987 | 16.97316 | 35932 ft | 440 kts | 300° |
| 2026-04-14 07:16 | 42.10305 | 16.90424 | 35925 ft | 441 kts | 300° |
| 2026-04-14 07:16 | 42.13640 | 16.83480 | 35926 ft | 441 kts | 300° |
| 2026-04-14 07:17 | 42.16961 | 16.76530 | 35918 ft | 441 kts | 300° |
| 2026-04-14 07:17 | 42.20258 | 16.69612 | 35946 ft | 441 kts | 300° |
| 2026-04-14 07:18 | 42.23585 | 16.62628 | 35925 ft | 441 kts | 300° |
| 2026-04-14 07:18 | 42.26903 | 16.55643 | 35923 ft | 442 kts | 300° |
| 2026-04-14 07:19 | 42.30200 | 16.48682 | 35914 ft | 442 kts | 300° |
| 2026-04-14 07:19 | 42.33516 | 16.41676 | 35918 ft | 442 kts | 300° |
| 2026-04-14 07:20 | 42.36836 | 16.34650 | 35917 ft | 442 kts | 300° |
| 2026-04-14 07:20 | 42.40123 | 16.27646 | 35918 ft | 442 kts | 300° |
| 2026-04-14 07:21 | 42.43424 | 16.20607 | 35907 ft | 443 kts | 300° |
| 2026-04-14 07:21 | 42.46723 | 16.13577 | 35906 ft | 443 kts | 300° |
| 2026-04-14 07:22 | 42.50022 | 16.06519 | 35906 ft | 443 kts | 300° |
| 2026-04-14 07:22 | 42.53238 | 15.99437 | 35907 ft | 443 kts | 298° |
| 2026-04-14 07:23 | 42.56355 | 15.92217 | 35901 ft | 442 kts | 297° |
| 2026-04-14 07:23 | 42.59429 | 15.85040 | 35900 ft | 442 kts | 298° |
| 2026-04-14 07:24 | 42.62542 | 15.77832 | 35897 ft | 442 kts | 297° |
| 2026-04-14 07:24 | 42.65673 | 15.70630 | 35896 ft | 442 kts | 297° |
| 2026-04-14 07:25 | 42.68788 | 15.63436 | 35902 ft | 442 kts | 298° |
| 2026-04-14 07:25 | 42.71897 | 15.56204 | 35894 ft | 443 kts | 298° |
| 2026-04-14 07:26 | 42.75008 | 15.48961 | 35888 ft | 443 kts | 298° |
| 2026-04-14 07:26 | 42.78099 | 15.41753 | 35888 ft | 443 kts | 298° |
| 2026-04-14 07:27 | 42.81198 | 15.34486 | 35883 ft | 444 kts | 297° |
| 2026-04-14 07:27 | 42.84297 | 15.27223 | 35893 ft | 443 kts | 297° |
| 2026-04-14 07:28 | 42.87395 | 15.19939 | 35878 ft | 444 kts | 297° |
| 2026-04-14 07:28 | 42.90493 | 15.12632 | 35878 ft | 445 kts | 297° |
| 2026-04-14 07:29 | 42.93598 | 15.05307 | 35878 ft | 445 kts | 297° |
| 2026-04-14 07:29 | 42.96675 | 14.98014 | 35880 ft | 446 kts | 297° |
| 2026-04-14 07:30 | 42.99760 | 14.90672 | 35890 ft | 446 kts | 297° |
| 2026-04-14 07:30 | 43.02852 | 14.83306 | 35888 ft | 446 kts | 297° |
| 2026-04-14 07:31 | 43.05936 | 14.75948 | 35884 ft | 446 kts | 297° |
| 2026-04-14 07:31 | 43.09004 | 14.68611 | 35886 ft | 446 kts | 297° |
| 2026-04-14 07:32 | 43.12088 | 14.61226 | 35883 ft | 446 kts | 297° |
| 2026-04-14 07:32 | 43.15139 | 14.53876 | 35883 ft | 446 kts | 297° |
| 2026-04-14 07:33 | 43.18206 | 14.46466 | 35885 ft | 446 kts | 297° |
| 2026-04-14 07:33 | 43.21257 | 14.39091 | 35887 ft | 446 kts | 297° |
| 2026-04-14 07:34 | 43.27378 | 14.24246 | 35883 ft | 446 kts | 297° |
| 2026-04-14 07:35 | 43.30399 | 14.16865 | 35887 ft | 446 kts | 297° |
| 2026-04-14 07:35 | 43.33445 | 14.09424 | 35882 ft | 446 kts | 297° |
| 2026-04-14 07:36 | 43.36490 | 14.01988 | 35886 ft | 446 kts | 297° |
| 2026-04-14 07:36 | 43.39510 | 13.94580 | 35881 ft | 447 kts | 297° |
| 2026-04-14 07:37 | 43.42542 | 13.87101 | 35878 ft | 447 kts | 297° |
| 2026-04-14 07:37 | 43.45562 | 13.79645 | 35886 ft | 448 kts | 297° |
| 2026-04-14 07:38 | 43.48600 | 13.72137 | 35885 ft | 449 kts | 296° |
| 2026-04-14 07:38 | 43.51636 | 13.64602 | 35885 ft | 449 kts | 296° |
| 2026-04-14 07:39 | 43.54656 | 13.57098 | 35887 ft | 449 kts | 296° |
| 2026-04-14 07:39 | 43.57683 | 13.49543 | 35893 ft | 449 kts | 296° |
| 2026-04-14 07:40 | 43.60690 | 13.42059 | 35899 ft | 448 kts | 297° |
| 2026-04-14 07:40 | 43.63772 | 13.34562 | 35905 ft | 449 kts | 297° |
| 2026-04-14 07:41 | 43.66848 | 13.27100 | 35905 ft | 449 kts | 297° |
| 2026-04-14 07:41 | 43.69675 | 13.19456 | 35903 ft | 445 kts | 287° |
| 2026-04-14 07:42 | 43.71699 | 13.11364 | 35906 ft | 445 kts | 286° |
| 2026-04-14 07:42 | 43.73705 | 13.03246 | 35900 ft | 445 kts | 286° |
| 2026-04-14 07:43 | 43.75687 | 12.95186 | 35898 ft | 445 kts | 286° |
| 2026-04-14 07:43 | 43.77674 | 12.87096 | 35895 ft | 445 kts | 286° |
| 2026-04-14 07:44 | 43.79653 | 12.78982 | 35895 ft | 444 kts | 286° |
| 2026-04-14 07:44 | 43.81623 | 12.70900 | 35902 ft | 444 kts | 286° |
| 2026-04-14 07:45 | 43.83599 | 12.62780 | 35894 ft | 444 kts | 286° |
| 2026-04-14 07:45 | 43.85567 | 12.54643 | 35896 ft | 445 kts | 286° |
| 2026-04-14 07:46 | 43.87522 | 12.46509 | 35888 ft | 445 kts | 286° |
| 2026-04-14 07:46 | 43.89466 | 12.38402 | 35897 ft | 445 kts | 286° |
| 2026-04-14 07:47 | 43.91414 | 12.30258 | 35891 ft | 445 kts | 285° |
| 2026-04-14 07:47 | 43.93353 | 12.22087 | 35886 ft | 445 kts | 285° |
| 2026-04-14 07:48 | 43.95278 | 12.13983 | 35883 ft | 445 kts | 285° |
| 2026-04-14 07:48 | 43.97213 | 12.05816 | 35884 ft | 445 kts | 285° |
| 2026-04-14 07:49 | 43.99141 | 11.97630 | 35890 ft | 446 kts | 286° |
| 2026-04-14 07:49 | 44.01067 | 11.89428 | 35879 ft | 447 kts | 286° |
| 2026-04-14 07:50 | 44.02666 | 11.82584 | 35878 ft | 447 kts | 286° |
| 2026-04-14 07:50 | 44.04896 | 11.73009 | 35878 ft | 447 kts | 286° |
| 2026-04-14 07:51 | 44.06490 | 11.66160 | 35881 ft | 447 kts | 286° |
| 2026-04-14 07:51 | 44.08411 | 11.57886 | 35885 ft | 448 kts | 286° |
| 2026-04-14 07:52 | 44.10308 | 11.49677 | 35888 ft | 449 kts | 286° |
| 2026-04-14 07:52 | 44.12211 | 11.41398 | 35897 ft | 449 kts | 286° |
| 2026-04-14 07:53 | 44.14111 | 11.33095 | 35897 ft | 449 kts | 286° |
| 2026-04-14 07:53 | 44.15995 | 11.24828 | 35919 ft | 449 kts | 287° |
| 2026-04-14 07:54 | 44.17890 | 11.16509 | 35917 ft | 450 kts | 287° |
| 2026-04-14 07:54 | 44.19773 | 11.08172 | 35919 ft | 451 kts | 286° |
| 2026-04-14 07:55 | 44.21639 | 10.99872 | 35928 ft | 450 kts | 285° |
| 2026-04-14 07:55 | 44.23509 | 10.91519 | 35931 ft | 451 kts | 286° |
| 2026-04-14 07:56 | 44.25381 | 10.83166 | 35940 ft | 450 kts | 286° |
| 2026-04-14 07:56 | 44.27235 | 10.74860 | 35941 ft | 451 kts | 286° |
| 2026-04-14 07:56 | 44.28165 | 10.70680 | 35668 ft | 453 kts | 286° |
| 2026-04-14 07:57 | 44.29109 | 10.66416 | 34603 ft | 462 kts | 286° |
| 2026-04-14 07:57 | 44.30058 | 10.62113 | 33835 ft | 463 kts | 286° |
| 2026-04-14 07:57 | 44.31013 | 10.57787 | 32683 ft | 469 kts | 285° |
| 2026-04-14 07:57 | 44.31969 | 10.53452 | 31858 ft | 466 kts | 286° |
| 2026-04-14 07:58 | 44.32917 | 10.49138 | 30796 ft | 469 kts | 285° |
| 2026-04-14 07:58 | 44.33867 | 10.44803 | 29912 ft | 462 kts | 285° |
| 2026-04-14 07:58 | 44.34798 | 10.40547 | 29220 ft | 449 kts | 285° |
| 2026-04-14 07:58 | 44.35689 | 10.36477 | 28589 ft | 436 kts | 286° |
| 2026-04-14 07:59 | 44.36567 | 10.32464 | 27973 ft | 426 kts | 286° |
| 2026-04-14 07:59 | 44.37424 | 10.28546 | 27363 ft | 419 kts | 285° |
| 2026-04-14 07:59 | 44.38269 | 10.24657 | 26760 ft | 416 kts | 286° |
| 2026-04-14 07:59 | 44.39104 | 10.20802 | 26178 ft | 413 kts | 285° |
| 2026-04-14 08:00 | 44.39936 | 10.16958 | 25586 ft | 412 kts | 285° |
| 2026-04-14 08:00 | 44.40763 | 10.13133 | 25012 ft | 409 kts | 285° |
| 2026-04-14 08:00 | 44.41585 | 10.09333 | 24425 ft | 407 kts | 285° |
| 2026-04-14 08:00 | 44.42390 | 10.05602 | 23877 ft | 405 kts | 286° |
| 2026-04-14 08:01 | 44.43201 | 10.01831 | 23295 ft | 403 kts | 286° |
| 2026-04-14 08:01 | 44.44008 | 9.98079 | 22737 ft | 399 kts | 286° |
| 2026-04-14 08:01 | 44.44804 | 9.94370 | 22241 ft | 394 kts | 286° |
| 2026-04-14 08:01 | 44.45587 | 9.90709 | 21769 ft | 390 kts | 286° |
| 2026-04-14 08:02 | 44.46400 | 9.87149 | 21299 ft | 387 kts | 291° |
| 2026-04-14 08:02 | 44.47588 | 9.83785 | 20851 ft | 383 kts | 302° |
| 2026-04-14 08:02 | 44.49146 | 9.80780 | 20395 ft | 379 kts | 310° |
| 2026-04-14 08:02 | 44.50796 | 9.77913 | 19920 ft | 377 kts | 310° |
| 2026-04-14 08:03 | 44.52433 | 9.75065 | 19451 ft | 375 kts | 310° |
| 2026-04-14 08:03 | 44.54072 | 9.72211 | 18966 ft | 373 kts | 310° |
| 2026-04-14 08:03 | 44.55696 | 9.69379 | 18479 ft | 372 kts | 310° |
| 2026-04-14 08:03 | 44.57297 | 9.66580 | 17952 ft | 372 kts | 311° |
| 2026-04-14 08:04 | 44.58916 | 9.63746 | 17442 ft | 370 kts | 311° |
| 2026-04-14 08:04 | 44.60524 | 9.60926 | 16946 ft | 370 kts | 310° |
| 2026-04-14 08:04 | 44.62137 | 9.58098 | 16442 ft | 369 kts | 310° |
| 2026-04-14 08:04 | 44.63748 | 9.55274 | 15929 ft | 369 kts | 311° |
| 2026-04-14 08:05 | 44.65329 | 9.52499 | 15440 ft | 368 kts | 310° |
| 2026-04-14 08:05 | 44.66932 | 9.49677 | 14926 ft | 367 kts | 310° |
| 2026-04-14 08:05 | 44.68516 | 9.46883 | 14427 ft | 366 kts | 310° |
| 2026-04-14 08:05 | 44.70101 | 9.44077 | 13919 ft | 365 kts | 309° |
| 2026-04-14 08:06 | 44.71681 | 9.41280 | 13374 ft | 363 kts | 310° |
| 2026-04-14 08:06 | 44.73334 | 9.38625 | 12846 ft | 357 kts | 319° |
| 2026-04-14 08:06 | 44.75298 | 9.36586 | 12349 ft | 352 kts | 332° |
| 2026-04-14 08:06 | 44.77528 | 9.35227 | 11844 ft | 347 kts | 347° |
| 2026-04-14 08:07 | 44.79886 | 9.34605 | 11334 ft | 342 kts | 359° |
| 2026-04-14 08:07 | 44.82257 | 9.34368 | 10816 ft | 340 kts | 358° |
| 2026-04-14 08:07 | 44.84607 | 9.34130 | 10430 ft | 333 kts | 359° |
| 2026-04-14 08:07 | 44.86827 | 9.33895 | 10305 ft | 307 kts | 360° |
| 2026-04-14 08:08 | 44.88867 | 9.33672 | 10001 ft | 291 kts | 360° |
| 2026-04-14 08:08 | 44.90867 | 9.33456 | 9690 ft | 284 kts | 358° |
| 2026-04-14 08:08 | 44.92836 | 9.33252 | 9560 ft | 284 kts | 358° |
| 2026-04-14 08:08 | 44.94813 | 9.33045 | 9431 ft | 284 kts | 360° |
| 2026-04-14 08:09 | 44.96788 | 9.32838 | 9125 ft | 286 kts | 0° |
| 2026-04-14 08:09 | 44.98752 | 9.32634 | 8741 ft | 284 kts | 359° |
| 2026-04-14 08:09 | 45.00728 | 9.32428 | 8316 ft | 283 kts | 359° |
| 2026-04-14 08:09 | 45.02684 | 9.32220 | 7912 ft | 280 kts | 359° |
| 2026-04-14 08:10 | 45.04617 | 9.32012 | 7267 ft | 276 kts | 359° |
| 2026-04-14 08:10 | 45.06523 | 9.31806 | 6682 ft | 272 kts | 359° |
| 2026-04-14 08:10 | 45.08393 | 9.31604 | 6124 ft | 267 kts | 360° |
| 2026-04-14 08:10 | 45.10238 | 9.31404 | 5667 ft | 266 kts | 359° |
| 2026-04-14 08:11 | 45.12062 | 9.31207 | 5213 ft | 267 kts | 359° |
| 2026-04-14 08:11 | 45.13904 | 9.31007 | 4914 ft | 263 kts | 359° |
| 2026-04-14 08:11 | 45.15690 | 9.30809 | 4801 ft | 251 kts | 360° |
| 2026-04-14 08:11 | 45.17400 | 9.30618 | 4688 ft | 240 kts | 360° |
| 2026-04-14 08:12 | 45.19027 | 9.30438 | 4589 ft | 229 kts | 360° |
| 2026-04-14 08:12 | 45.20577 | 9.30271 | 4491 ft | 220 kts | 357° |
| 2026-04-14 08:12 | 45.22069 | 9.30113 | 4406 ft | 213 kts | 357° |
| 2026-04-14 08:12 | 45.23533 | 9.29958 | 4231 ft | 209 kts | 357° |
| 2026-04-14 08:13 | 45.24982 | 9.29803 | 3975 ft | 209 kts | 356° |
| 2026-04-14 08:13 | 45.26434 | 9.29648 | 3702 ft | 210 kts | 356° |
| 2026-04-14 08:13 | 45.27892 | 9.29492 | 3426 ft | 210 kts | 356° |
| 2026-04-14 08:13 | 45.29353 | 9.29335 | 3146 ft | 211 kts | 356° |
| 2026-04-14 08:14 | 45.30802 | 9.29180 | 2864 ft | 211 kts | 356° |
| 2026-04-14 08:14 | 45.32270 | 9.29023 | 2576 ft | 210 kts | 356° |
| 2026-04-14 08:14 | 45.33675 | 9.28872 | 2308 ft | 197 kts | 356° |
| 2026-04-14 08:14 | 45.35025 | 9.28726 | 2041 ft | 193 kts | 357° |
| 2026-04-14 08:15 | 45.36330 | 9.28586 | 1788 ft | 182 kts | 358° |
| 2026-04-14 08:15 | 45.37553 | 9.28454 | 1557 ft | 168 kts | 358° |
| 2026-04-14 08:15 | 45.38666 | 9.28334 | 1324 ft | 154 kts | 358° |
| 2026-04-14 08:15 | 45.39698 | 9.28223 | 1122 ft | 146 kts | 357° |
| 2026-04-14 08:16 | 45.40705 | 9.28116 | 926 ft | 144 kts | 353° |
| 2026-04-14 08:16 | 45.41706 | 9.28008 | 732 ft | 143 kts | 354° |
| 2026-04-14 08:16 | 45.42700 | 9.27902 | 546 ft | 143 kts | 354° |
| 2026-04-14 08:16 | 45.43688 | 9.27813 | 393 ft | 139 kts | 354° |
| 2026-04-14 08:17 | 45.44544 | 9.27686 | 362 ft | 103 kts | 353° |
| 2026-04-14 08:17 | 45.45101 | 9.27622 | 361 ft | 62 kts | 357° |
| 2026-04-14 08:17 | 45.45369 | 9.27707 | 360 ft | 32 kts | 31° |
| 2026-04-14 08:17 | 45.45398 | 9.27728 | 363 ft | 0 kts | 24° |
| 2026-04-14 08:18 | 45.45434 | 9.27761 | 360 ft | 2 kts | 44° |
| 2026-04-14 08:19 | 45.45586 | 9.27816 | 360 ft | 24 kts | 0° |
| 2026-04-14 08:19 | 45.45759 | 9.27817 | 360 ft | 26 kts | 1° |
| 2026-04-14 08:19 | 45.45890 | 9.27832 | 360 ft | 14 kts | 33° |
| 2026-04-14 08:19 | 45.45916 | 9.27933 | 363 ft | 10 kts | 66° |
| 2026-04-14 08:20 | 45.45968 | 9.27965 | 360 ft | 6 kts | 1° |
| 2026-04-14 08:20 | 45.45975 | 9.27965 | 360 ft | 0 kts | 3° |